createdAt,value
2018-06-11T00:00:27.672Z,674.20
2018-06-11T00:03:07.913Z,665.70
2018-06-11T00:05:47.573Z,658.13
2018-06-11T00:08:28.971Z,696.60
2018-06-11T00:11:08.494Z,696.93
2018-06-11T00:13:51.789Z,715.97
2018-06-11T00:16:32.315Z,737.70
2018-06-11T00:19:12.452Z,766.60
2018-06-11T00:21:53.394Z,869.77
2018-06-11T00:24:34.293Z,909.93
2018-06-11T00:30:06.608Z,1091.40
2018-06-11T00:32:48.291Z,1123.50
2018-06-11T00:35:29.252Z,1189.90
2018-06-11T00:38:07.732Z,1249.00
2018-06-11T00:40:46.550Z,1341.60
2018-06-11T00:43:25.358Z,1369.53
2018-06-11T00:46:04.417Z,1361.50
2018-06-11T00:48:45.037Z,1322.07
2018-06-11T00:51:32.891Z,1281.43
2018-06-11T00:54:09.933Z,1287.57
2018-06-11T00:56:49.534Z,1201.93
2018-06-11T00:59:30.229Z,1050.00
2018-06-11T01:02:09.451Z,1234.97
2018-06-11T01:04:47.675Z,908.17
2018-06-11T01:07:29.033Z,1029.07
2018-06-11T01:10:08.389Z,1148.07
2018-06-11T01:12:49.998Z,1125.33
2018-06-11T01:15:30.756Z,927.53
2018-06-11T01:18:10.037Z,1077.77
2018-06-11T01:20:49.094Z,1029.13
2018-06-11T01:23:27.690Z,1073.73
2018-06-11T01:26:10.173Z,1306.20
2018-06-11T01:28:47.469Z,1130.57
2018-06-11T01:31:26.232Z,1074.67
2018-06-11T01:34:05.211Z,1226.40
2018-06-11T01:36:55.496Z,1228.93
2018-06-11T01:39:35.351Z,1266.37
2018-06-11T17:27:11.238Z,472.47
2018-06-11T17:30:07.063Z,284.10
2018-06-11T17:32:55.966Z,825.63
2018-06-11T17:35:40.336Z,1013.20
2018-06-11T17:41:31.058Z,935.43
2018-06-11T17:44:15.622Z,1019.20
2018-06-11T17:46:59.991Z,1168.80
2018-06-11T17:49:43.924Z,924.30
2018-06-11T17:52:34.760Z,814.63
2018-06-11T17:55:32.297Z,924.47
2018-06-11T17:58:17.860Z,901.90
2018-06-11T18:01:05.702Z,953.47
2018-06-11T18:03:50.081Z,1083.50
2018-06-11T18:06:38.618Z,1126.43
2018-06-11T18:09:23.619Z,1041.83
2018-06-11T18:12:22.540Z,1166.87
2018-06-11T18:15:27.160Z,961.63
2018-06-11T18:18:43.685Z,865.70
2018-06-11T18:21:32.125Z,852.90
2018-06-11T18:24:14.506Z,877.57
2018-06-11T18:26:55.616Z,856.13
2018-06-11T18:29:36.263Z,980.03
2018-06-11T18:32:19.697Z,1012.60
2018-06-11T18:35:01.220Z,950.10
2018-06-11T18:37:46.069Z,909.53
2018-06-11T18:40:26.862Z,784.17
2018-06-11T18:43:14.197Z,772.80
2018-06-11T18:45:58.521Z,870.80
2018-06-11T18:48:54.184Z,758.93
2018-06-11T18:51:38.199Z,980.13
2018-06-11T18:54:28.444Z,865.70
2018-06-11T18:57:23.062Z,853.27
2018-06-11T19:00:16.544Z,846.33
2018-06-11T19:03:32.200Z,764.63
2018-06-11T19:06:25.282Z,845.10
2018-06-11T19:09:20.829Z,914.10
2018-06-11T19:12:11.998Z,768.10
2018-06-11T19:15:06.256Z,694.27
2018-06-11T19:17:57.307Z,741.17
2018-06-11T19:20:46.959Z,760.73
2018-06-11T19:23:38.618Z,704.40
2018-06-11T19:26:23.502Z,633.03
2018-06-11T19:32:39.422Z,767.80
2018-06-11T19:35:33.446Z,675.37
2018-06-11T19:38:19.116Z,578.40
2018-06-11T19:41:09.722Z,714.90
2018-06-11T19:43:56.978Z,723.83
2018-06-11T19:49:58.294Z,741.10
2018-06-11T19:52:49.241Z,870.33
2018-06-11T19:55:36.438Z,893.77
2018-06-11T19:58:21.899Z,886.83
2018-06-11T20:04:21.223Z,875.67
2018-06-11T20:07:11.362Z,981.57
2018-06-11T20:10:17.680Z,1041.67
2018-06-11T20:13:03.119Z,1037.00
2018-06-11T20:16:02.110Z,885.43
2018-06-11T20:18:58.238Z,722.70
2018-06-11T20:21:50.377Z,505.83
2018-06-11T20:24:36.281Z,504.83
2018-06-11T20:27:25.563Z,572.77
2018-06-11T20:30:18.863Z,607.17
2018-06-11T20:33:18.011Z,669.93
2018-06-11T20:36:02.742Z,908.63
2018-06-11T20:38:47.843Z,886.63
2018-06-11T20:41:45.424Z,1001.87
2018-06-11T20:45:45.603Z,1096.33
2018-06-11T20:48:39.248Z,1225.90
2018-06-11T20:52:38.529Z,1182.80
2018-06-11T20:55:36.923Z,1111.40
2018-06-11T20:58:36.193Z,984.17
2018-06-11T21:01:31.603Z,969.60
2018-06-11T21:07:26.240Z,961.67
2018-06-11T21:10:30.639Z,1197.57
2018-06-11T21:16:28.417Z,1253.00
2018-06-11T21:19:42.140Z,1290.87
2018-06-11T21:22:31.838Z,1279.80
2018-06-11T21:25:38.746Z,1277.07
2018-06-11T21:28:43.028Z,1183.47
2018-06-11T21:38:07.425Z,885.53
2018-06-11T21:41:15.306Z,1010.43
2018-06-11T21:44:12.676Z,1116.97
2018-06-11T21:47:10.623Z,1194.70
2018-06-11T21:50:07.701Z,1190.17
2018-06-11T21:53:10.582Z,1202.63
2018-06-11T21:59:30.160Z,1235.30
2018-06-11T22:06:01.782Z,1130.43
2018-06-11T22:09:10.384Z,1090.00
2018-06-11T22:34:26.571Z,1188.97
2018-06-11T22:41:10.490Z,849.57
2018-06-11T22:43:56.742Z,834.37
2018-06-11T22:46:43.169Z,1001.23
2018-06-11T22:49:27.908Z,906.80
2018-06-11T22:52:28.051Z,961.60
2018-06-11T22:55:13.955Z,783.17
2018-06-11T22:57:58.229Z,721.70
2018-06-11T23:00:52.547Z,613.97
2018-06-11T23:04:09.906Z,507.30
2018-06-11T23:10:21.486Z,527.87
2018-06-11T23:13:27.569Z,456.43
2018-06-11T23:16:16.725Z,546.70
2018-06-11T23:19:04.767Z,781.53
2018-06-11T23:21:48.085Z,754.27
2018-06-11T23:24:39.469Z,681.30
2018-06-11T23:27:34.964Z,629.00
2018-06-11T23:30:19.452Z,585.50
2018-06-11T23:33:05.326Z,581.23
2018-06-11T23:35:55.449Z,590.10
2018-06-11T23:39:01.206Z,480.17
2018-06-11T23:41:44.431Z,437.87
2018-06-11T23:44:37.430Z,496.93
2018-06-11T23:47:39.608Z,395.70
2018-06-11T23:50:30.631Z,390.47
2018-06-11T23:53:18.609Z,407.43
2018-06-11T23:56:07.864Z,380.17
2018-06-11T23:58:51.809Z,370.10
